Time;durP1;ratioP1;P1;durP2;ratioP2;P2;SDS_P1;SDS_P2;PMS_P1;PMS_P2;Temp;Humidity;BMP_temperature;BMP_pressure;BME280_temperature;BME280_humidity;BME280_pressure;Samples;Min_cycle;Max_cycle;Signal;HPM_P1;HPM_P2
2021/05/12 00:01:15;;;;;;;1.63;0.90;;;;;;;25.37;32.67;94589.22;4747175;30;20020;-69
2021/05/12 00:03:40;;;;;;;1.67;1.00;;;;;;;25.38;32.75;94590.69;4746838;30;20052;-69
2021/05/12 00:06:06;;;;;;;1.25;0.93;;;;;;;25.34;32.69;94590.28;4747635;30;20035;-68
2021/05/12 00:08:31;;;;;;;2.28;0.90;;;;;;;25.25;32.49;94582.53;4747663;30;20032;-69
2021/05/12 00:10:57;;;;;;;1.00;0.80;;;;;;;25.38;32.02;94590.69;4745913;30;20032;-69
2021/05/12 00:13:23;;;;;;;1.80;0.98;;;;;;;25.34;32.86;94573.88;4747705;30;20040;-69
2021/05/12 00:15:48;;;;;;;1.50;0.88;;;;;;;25.34;32.24;94579.34;4747907;30;20039;-68
2021/05/12 00:18:17;;;;;;;1.30;1.00;;;;;;;25.32;32.68;94582.63;4747477;30;20107;-68
2021/05/12 00:20:43;;;;;;;1.20;0.80;;;;;;;25.32;32.15;94581.91;4744464;30;20036;-69
2021/05/12 00:23:12;;;;;;;1.50;0.98;;;;;;;25.32;32.86;94576.44;4761203;30;20043;-69
2021/05/12 00:25:37;;;;;;;1.50;1.00;;;;;;;25.31;32.75;94569.47;4746530;30;20032;-68
2021/05/12 00:28:03;;;;;;;1.27;0.80;;;;;;;25.32;32.23;94565.50;4747294;30;20093;-68
2021/05/12 00:30:28;;;;;;;1.23;0.90;;;;;;;25.31;32.45;94563.28;4747481;30;20051;-68
2021/05/12 00:32:54;;;;;;;1.70;1.00;;;;;;;25.08;32.64;94552.13;4747379;30;20032;-69
2021/05/12 00:35:19;;;;;;;1.40;0.90;;;;;;;25.28;32.29;94558.91;4746045;30;20075;-69
2021/05/12 00:37:45;;;;;;;1.20;0.85;;;;;;;25.28;32.32;94558.91;4747499;30;20435;-69
2021/05/12 00:40:13;;;;;;;1.40;0.85;;;;;;;25.26;32.31;94545.75;4747131;30;20085;-69
2021/05/12 00:42:38;;;;;;;1.40;0.90;;;;;;;25.27;32.63;94555.41;4747447;30;20107;-70
2021/05/12 00:45:05;;;;;;;1.58;1.10;;;;;;;25.26;33.11;94562.16;4744822;30;20036;-69
2021/05/12 00:47:31;;;;;;;1.40;0.70;;;;;;;25.19;32.51;94551.88;4729742;30;20505;-68
2021/05/12 00:49:56;;;;;;;1.27;0.90;;;;;;;25.24;33.20;94559.19;4743005;30;20064;-69
2021/05/12 00:52:22;;;;;;;1.27;1.00;;;;;;;25.24;32.53;94548.28;4729901;30;20496;-69
2021/05/12 00:54:48;;;;;;;1.00;0.90;;;;;;;25.23;32.71;94546.81;4742961;30;20476;-69
2021/05/12 00:57:13;;;;;;;1.90;0.93;;;;;;;25.24;32.76;94542.81;4729544;30;20500;-68
2021/05/12 00:59:39;;;;;;;1.08;0.77;;;;;;;25.23;33.43;94540.59;4729672;30;20036;-68
2021/05/12 01:02:07;;;;;;;1.05;0.80;;;;;;;25.22;32.74;94534.41;4730248;30;20446;-68
2021/05/12 01:04:33;;;;;;;1.90;0.85;;;;;;;25.22;33.06;94545.34;4752535;30;20120;-68
2021/05/12 01:06:59;;;;;;;1.55;0.80;;;;;;;25.17;32.63;94543.47;4743344;30;20039;-69
2021/05/12 01:09:24;;;;;;;3.10;0.90;;;;;;;25.21;33.20;94527.47;4742711;30;20402;-69
2021/05/12 01:11:50;;;;;;;1.10;0.80;;;;;;;24.99;33.25;94495.22;4729724;30;20039;-69
2021/05/12 01:14:15;;;;;;;1.23;0.80;;;;;;;25.19;32.72;94530.00;4732249;30;20043;-69
2021/05/12 01:16:42;;;;;;;1.23;0.82;;;;;;;25.19;33.03;94518.34;4755841;30;20697;-69
2021/05/12 01:19:08;;;;;;;1.45;0.80;;;;;;;25.16;33.40;94528.34;4750031;30;20543;-69
2021/05/12 01:21:34;;;;;;;1.13;0.65;;;;;;;25.19;32.88;94518.34;4750601;30;20045;-69
2021/05/12 01:23:59;;;;;;;1.63;0.75;;;;;;;25.16;32.75;94514.69;4750214;30;20105;-69
2021/05/12 01:26:25;;;;;;;1.00;0.70;;;;;;;25.17;32.76;94513.44;4749797;30;20046;-68
2021/05/12 01:28:52;;;;;;;1.15;0.80;;;;;;;25.15;33.28;94515.94;4750047;30;20036;-69
2021/05/12 01:31:32;;;;;;;1.05;0.77;;;;;;;25.15;32.93;94513.22;4748659;30;20429;-69
2021/05/12 01:33:58;;;;;;;0.90;0.70;;;;;;;25.15;33.21;94518.66;4748846;30;20464;-68
2021/05/12 01:36:23;;;;;;;1.23;0.80;;;;;;;25.14;32.99;94514.50;4749781;30;20044;-68
2021/05/12 01:38:49;;;;;;;1.23;0.80;;;;;;;25.15;33.54;94513.22;4749720;30;20043;-69
2021/05/12 01:41:15;;;;;;;1.00;0.82;;;;;;;25.17;33.42;94507.97;4749610;30;20047;-69
2021/05/12 01:43:41;;;;;;;0.90;0.70;;;;;;;25.17;32.81;94510.69;4750036;30;20047;-69
2021/05/12 01:46:07;;;;;;;1.52;0.90;;;;;;;25.17;33.38;94505.22;4749712;30;20040;-69
2021/05/12 01:48:32;;;;;;;1.38;0.80;;;;;;;25.15;33.26;94504.28;4748100;30;20054;-69
2021/05/12 01:50:58;;;;;;;1.65;0.90;;;;;;;25.15;33.03;94502.28;4749639;30;20094;-69
2021/05/12 01:53:23;;;;;;;1.50;0.85;;;;;;;25.13;33.59;94493.88;4749617;30;20048;-69
2021/05/12 01:55:49;;;;;;;1.40;0.80;;;;;;;25.18;33.03;94495.75;4749584;30;20040;-69
2021/05/12 01:58:15;;;;;;;1.35;0.90;;;;;;;25.16;33.57;94503.03;4748564;30;20036;-69
2021/05/12 02:00:42;;;;;;;1.02;0.70;;;;;;;25.10;33.58;94489.50;4749463;30;20564;-69
2021/05/12 02:03:08;;;;;;;1.40;0.75;;;;;;;25.16;33.37;94484.63;4747941;30;20202;-69
2021/05/12 02:05:34;;;;;;;1.65;0.70;;;;;;;24.94;33.56;94459.78;4749773;30;20135;-68
2021/05/12 02:08:00;;;;;;;1.60;0.80;;;;;;;25.13;33.02;94493.16;4778034;30;20048;-68
2021/05/12 02:10:26;;;;;;;1.50;1.00;;;;;;;25.12;33.27;94497.88;4749080;30;20025;-68
2021/05/12 02:12:52;;;;;;;1.40;0.80;;;;;;;25.14;33.79;94489.16;4748097;30;20032;-68
2021/05/12 02:15:18;;;;;;;1.10;0.70;;;;;;;25.12;33.39;94491.69;4749313;30;20055;-68
2021/05/12 02:17:43;;;;;;;1.60;0.90;;;;;;;25.12;33.35;94481.47;4747897;30;20048;-69
2021/05/12 02:20:10;;;;;;;1.17;0.90;;;;;;;25.10;33.30;94484.03;4748874;30;20402;-69
2021/05/12 02:22:35;;;;;;;0.95;0.73;;;;;;;25.12;33.66;94492.41;4749073;30;20111;-69
2021/05/12 02:25:01;;;;;;;1.88;0.90;;;;;;;25.13;33.14;94488.41;4748343;30;20083;-69
2021/05/12 02:27:26;;;;;;;1.13;0.80;;;;;;;25.07;33.38;94479.63;4748746;30;20417;-68
2021/05/12 02:29:52;;;;;;;1.27;0.77;;;;;;;25.09;33.42;94488.00;4748794;30;20621;-69
2021/05/12 02:32:17;;;;;;;1.45;0.80;;;;;;;25.07;33.54;94485.09;4749091;30;20484;-68
2021/05/12 02:34:43;;;;;;;1.20;0.80;;;;;;;24.72;33.46;94426.81;4777222;30;20569;-68
2021/05/12 02:37:08;;;;;;;2.35;0.82;;;;;;;25.10;34.10;94484.03;4747636;30;20020;-69
2021/05/12 02:39:34;;;;;;;1.35;0.80;;;;;;;25.08;33.65;94492.03;4747699;30;20436;-69
2021/05/12 02:41:59;;;;;;;1.50;0.82;;;;;;;25.09;33.97;94482.53;4748900;30;20051;-69
2021/05/12 02:44:25;;;;;;;1.70;0.70;;;;;;;25.07;33.53;94485.09;4777456;30;20508;-69
2021/05/12 02:46:50;;;;;;;1.50;0.90;;;;;;;25.04;33.91;94486.16;4748581;30;20089;-69
2021/05/12 02:49:16;;;;;;;1.65;0.80;;;;;;;25.05;33.70;94484.91;4742972;30;20055;-69
2021/05/12 02:51:41;;;;;;;1.40;0.68;;;;;;;24.99;33.85;94467.91;4731311;30;20098;-69
2021/05/12 02:54:07;;;;;;;1.88;0.90;;;;;;;25.03;33.49;94479.22;4730923;30;20066;-69
2021/05/12 02:56:32;;;;;;;2.00;1.00;;;;;;;25.03;33.81;94479.22;4730752;30;20024;-69
2021/05/12 02:58:58;;;;;;;1.20;0.90;;;;;;;25.03;34.18;94473.75;4731263;30;20064;-68
2021/05/12 03:01:23;;;;;;;1.20;0.80;;;;;;;25.05;33.98;94482.16;4730107;30;20608;-69
2021/05/12 03:03:49;;;;;;;1.25;0.77;;;;;;;24.99;33.81;94473.38;4747514;30;20129;-69
2021/05/12 03:06:14;;;;;;;1.63;0.88;;;;;;;25.01;33.76;94481.75;4748458;30;20036;-68
2021/05/12 03:08:40;;;;;;;2.85;1.15;;;;;;;24.90;32.26;94473.78;4742786;30;20040;-70
2021/05/12 03:11:05;;;;;;;2.25;1.08;;;;;;;24.75;32.55;94485.81;4745666;30;20110;-70
2021/05/12 03:13:31;;;;;;;1.70;1.10;;;;;;;24.50;33.24;94481.94;4775622;30;20044;-68
2021/05/12 03:15:56;;;;;;;2.63;1.48;;;;;;;24.56;33.79;94491.47;4739608;30;20488;-70
2021/05/12 03:18:21;;;;;;;2.70;1.10;;;;;;;24.63;33.90;94484.59;4745332;30;20039;-70
2021/05/12 03:20:47;;;;;;;4.07;1.02;;;;;;;24.71;33.84;94496.31;4767658;30;20036;-72
2021/05/12 03:23:12;;;;;;;2.30;1.20;;;;;;;24.78;33.90;94484.75;4747543;30;20052;-72
2021/05/12 03:25:38;;;;;;;3.22;1.67;;;;;;;24.47;34.72;94428.38;4771198;30;20032;-71
2021/05/12 03:28:04;;;;;;;1.83;0.90;;;;;;;24.91;33.85;94467.03;4747293;30;20032;-71
2021/05/12 03:30:34;;;;;;;2.35;1.27;;;;;;;24.82;33.99;94453.84;4742949;30;20053;-71
2021/05/12 03:33:00;;;;;;;1.90;1.20;;;;;;;25.12;33.80;94475.28;4744170;30;20049;-71
2021/05/12 03:35:26;;;;;;;1.85;1.10;;;;;;;25.23;34.36;94475.00;4740604;30;20425;-70
2021/05/12 03:37:51;;;;;;;3.25;1.10;;;;;;;25.32;34.27;94472.56;4745803;29;20024;-71
2021/05/12 03:40:17;;;;;;;2.13;1.10;;;;;;;25.45;33.42;94469.72;4744031;30;20039;-72
2021/05/12 03:42:43;;;;;;;1.75;1.02;;;;;;;25.53;33.31;94467.78;4745587;30;20091;-71
2021/05/12 03:45:09;;;;;;;2.88;1.20;;;;;;;25.70;33.08;94468.13;4742977;30;20130;-71
2021/05/12 03:47:35;;;;;;;3.42;1.05;;;;;;;25.79;33.50;94466.34;4748634;30;20081;-71
2021/05/12 03:50:01;;;;;;;1.15;0.82;;;;;;;25.89;32.72;94464.59;4730835;30;20031;-73
2021/05/12 03:52:26;;;;;;;1.70;0.95;;;;;;;26.00;32.54;94458.81;4748655;30;20524;-69
2021/05/12 03:54:52;;;;;;;2.25;0.90;;;;;;;26.13;32.97;94464.16;4737988;30;20033;-72
2021/05/12 03:57:17;;;;;;;1.95;0.95;;;;;;;26.20;32.99;94460.72;4746784;30;20494;-72
2021/05/12 03:59:43;;;;;;;1.40;0.90;;;;;;;26.32;32.73;94464.63;4745196;30;20035;-72
2021/05/12 04:02:08;;;;;;;3.22;1.15;;;;;;;26.43;32.32;94456.13;4774669;30;20402;-72
2021/05/12 04:04:34;;;;;;;1.65;1.00;;;;;;;26.51;32.03;94456.84;4742748;30;20052;-70
2021/05/12 04:07:00;;;;;;;1.70;1.10;;;;;;;26.60;31.97;94459.09;4745936;30;20060;-70
2021/05/12 04:09:26;;;;;;;2.10;1.20;;;;;;;26.60;32.07;94453.59;4727266;30;20426;-70
2021/05/12 04:11:51;;;;;;;2.80;1.30;;;;;;;26.71;32.18;94453.25;4741255;30;20577;-70
2021/05/12 04:14:16;;;;;;;2.03;1.10;;;;;;;26.80;31.75;94456.94;4744944;30;20112;-70
2021/05/12 04:16:42;;;;;;;2.63;1.30;;;;;;;26.93;31.43;94459.53;4741799;30;20036;-70
2021/05/12 04:19:08;;;;;;;2.33;1.00;;;;;;;27.00;31.39;94452.63;4742162;30;20564;-70
2021/05/12 04:21:33;;;;;;;2.35;1.00;;;;;;;27.00;31.42;94447.88;4737569;30;20486;-70
2021/05/12 04:23:58;;;;;;;2.10;1.00;;;;;;;26.89;31.39;94431.78;4741708;30;20039;-69
2021/05/12 04:26:24;;;;;;;2.90;1.10;;;;;;;26.96;31.67;94442.00;4748889;30;20044;-70
2021/05/12 04:28:49;;;;;;;3.13;1.50;;;;;;;27.05;30.49;94449.69;4756585;30;20149;-71
2021/05/12 04:31:15;;;;;;;2.17;1.50;;;;;;;26.65;31.05;94439.00;4745506;30;20028;-71
2021/05/12 04:33:40;;;;;;;3.17;1.83;;;;;;;26.34;30.90;94440.19;4741781;30;20093;-71
2021/05/12 04:36:06;;;;;;;4.50;1.60;;;;;;;26.24;30.77;94433.72;4746083;30;20024;-70
2021/05/12 04:38:31;;;;;;;3.28;1.92;;;;;;;26.10;31.15;94429.66;4746036;30;20028;-69
2021/05/12 04:40:58;;;;;;;5.22;1.90;;;;;;;25.93;31.04;94432.16;4745139;30;20032;-70
2021/05/12 04:43:24;;;;;;;4.20;2.10;;;;;;;25.81;30.12;94425.53;4746789;30;20151;-70
2021/05/12 04:45:50;;;;;;;4.68;1.95;;;;;;;25.58;30.53;94426.63;4745016;30;20040;-73
2021/05/12 04:48:15;;;;;;;5.57;1.98;;;;;;;25.43;30.51;94434.00;4748591;30;20036;-70
2021/05/12 04:50:40;;;;;;;5.22;2.30;;;;;;;25.27;31.00;94426.94;4735537;30;20048;-71
2021/05/12 04:53:06;;;;;;;4.25;1.90;;;;;;;25.23;31.37;94434.03;4739174;30;20565;-74
2021/05/12 04:55:31;;;;;;;6.55;2.20;;;;;;;24.86;31.77;94421.50;4746286;30;20024;-73
2021/05/12 04:57:57;;;;;;;4.88;1.95;;;;;;;24.91;31.75;94428.81;4746635;30;20068;-75
2021/05/12 05:00:22;;;;;;;3.28;1.90;;;;;;;24.78;31.22;94424.69;4745129;30;20032;-72
2021/05/12 05:02:48;;;;;;;4.05;2.10;;;;;;;24.82;31.43;94425.81;4745163;30;20439;-74
2021/05/12 05:05:16;;;;;;;3.22;2.13;;;;;;;24.68;32.05;94420.94;4744483;30;20039;-73
2021/05/12 05:07:42;;;;;;;5.97;2.13;;;;;;;24.53;32.18;94415.34;4749963;30;20036;-72
2021/05/12 05:10:08;;;;;;;4.47;2.20;;;;;;;24.51;31.82;94406.94;4743467;30;20036;-72
2021/05/12 05:12:34;;;;;;;4.25;2.15;;;;;;;24.47;32.27;94401.09;4749729;30;20032;-72
2021/05/12 05:14:59;;;;;;;3.75;2.20;;;;;;;24.45;32.00;94403.59;4744327;30;20043;-75
2021/05/12 05:17:25;;;;;;;6.38;2.13;;;;;;;24.25;32.91;94396.09;4748313;30;20123;-70
2021/05/12 05:19:51;;;;;;;5.90;2.00;;;;;;;24.37;32.42;94389.16;4740812;30;20766;-70
2021/05/12 05:22:17;;;;;;;4.88;2.10;;;;;;;24.49;33.00;94404.03;4743427;30;20036;-72
2021/05/12 05:24:42;;;;;;;4.93;1.75;;;;;;;24.66;32.58;94418.00;4762643;30;20090;-71
2021/05/12 05:27:08;;;;;;;3.30;1.73;;;;;;;24.77;33.17;94395.91;4749660;30;20101;-71
2021/05/12 05:29:33;;;;;;;6.60;1.75;;;;;;;24.89;34.05;94401.31;4745456;30;20418;-72
2021/05/12 05:31:59;;;;;;;7.20;1.73;;;;;;;24.88;34.66;94391.63;4747154;30;20563;-73
2021/05/12 05:34:24;;;;;;;4.18;1.80;;;;;;;24.91;33.33;94385.09;4746838;30;20582;-73
2021/05/12 05:36:50;;;;;;;5.30;1.70;;;;;;;25.07;33.58;94380.53;4747596;30;20024;-73
2021/05/12 05:39:15;;;;;;;7.78;2.53;;;;;;;25.06;33.65;94379.06;4776853;30;20028;-72
2021/05/12 05:41:41;;;;;;;6.43;2.00;;;;;;;25.14;33.14;94369.66;4748729;30;20040;-72
2021/05/12 05:44:06;;;;;;;2.97;1.58;;;;;;;25.17;32.54;94368.59;4745320;30;20045;-73
2021/05/12 05:46:32;;;;;;;4.35;1.83;;;;;;;25.21;32.66;94368.97;4746119;30;20119;-73
2021/05/12 05:48:57;;;;;;;3.63;1.90;;;;;;;25.22;32.64;94370.44;4745433;30;20210;-73
2021/05/12 05:51:23;;;;;;;3.15;1.77;;;;;;;25.28;32.86;94368.28;4746430;30;20084;-73
2021/05/12 05:53:49;;;;;;;4.80;2.00;;;;;;;25.34;32.95;94371.63;4746295;30;20797;-72
2021/05/12 05:56:14;;;;;;;6.75;2.42;;;;;;;25.39;32.18;94378.94;4745677;30;20101;-71
2021/05/12 05:58:40;;;;;;;4.93;1.98;;;;;;;25.47;32.66;94369.50;4746334;30;20040;-71
2021/05/12 06:01:05;;;;;;;5.20;1.83;;;;;;;25.54;32.54;94368.06;4743243;30;20438;-69
2021/05/12 06:03:31;;;;;;;4.45;2.10;;;;;;;25.32;32.27;94335.91;4746511;30;20173;-68
2021/05/12 06:05:56;;;;;;;5.25;1.92;;;;;;;25.21;32.45;94319.78;4747096;30;20037;-68
2021/05/12 06:08:24;;;;;;;7.43;2.83;;;;;;;25.52;32.31;94356.97;4748196;30;20032;-68
2021/05/12 06:10:49;;;;;;;4.65;2.05;;;;;;;25.46;31.72;94356.38;4747849;30;20043;-68
2021/05/12 06:13:15;;;;;;;3.65;1.90;;;;;;;25.53;32.24;94350.19;4748463;30;20437;-68
2021/05/12 06:15:41;;;;;;;5.47;2.53;;;;;;;25.52;32.17;94343.28;4743857;30;20434;-68
2021/05/12 06:18:07;;;;;;;5.72;1.90;;;;;;;25.47;32.08;94346.88;4746582;30;20042;-68
2021/05/12 06:20:32;;;;;;;6.97;2.20;;;;;;;25.42;31.51;94345.03;4740991;30;20456;-68
2021/05/12 06:23:02;;;;;;;8.05;2.20;;;;;;;25.41;32.29;94343.56;4748396;30;20036;-68
2021/05/12 06:25:28;;;;;;;6.15;2.08;;;;;;;25.37;32.40;94337.75;4745782;30;20528;-68
2021/05/12 06:27:53;;;;;;;9.15;2.50;;;;;;;25.32;32.71;94341.38;4747162;30;20127;-68
2021/05/12 06:30:18;;;;;;;8.07;2.25;;;;;;;25.32;32.77;94324.97;4760017;30;20068;-68
2021/05/12 06:32:44;;;;;;;7.45;2.22;;;;;;;25.29;32.86;94326.03;4746627;30;20052;-68
2021/05/12 06:35:10;;;;;;;6.63;2.47;;;;;;;25.26;33.02;94327.13;4745460;30;20048;-68
2021/05/12 06:37:35;;;;;;;10.25;2.40;;;;;;;25.21;32.86;94330.72;4748164;30;20086;-68
2021/05/12 06:40:01;;;;;;;5.80;2.30;;;;;;;25.15;32.61;94324.66;4742888;30;20411;-68
2021/05/12 06:42:26;;;;;;;8.38;2.60;;;;;;;25.20;32.63;94323.78;4748144;30;20032;-68
2021/05/12 06:44:52;;;;;;;8.23;2.38;;;;;;;25.11;33.10;94316.09;4743607;30;20437;-68
2021/05/12 06:47:17;;;;;;;2.90;1.92;;;;;;;25.03;33.41;94314.56;4769622;30;20490;-68
2021/05/12 06:49:43;;;;;;;6.15;1.90;;;;;;;25.07;33.52;94321.16;4744306;30;20036;-68
2021/05/12 06:52:08;;;;;;;5.47;2.03;;;;;;;25.01;33.24;94328.75;4747939;30;20109;-68
2021/05/12 06:54:33;;;;;;;10.48;2.15;;;;;;;24.97;33.10;94327.59;4744583;30;20044;-68
2021/05/12 06:56:59;;;;;;;6.00;2.00;;;;;;;24.93;32.77;94325.22;4746826;30;20036;-68
2021/05/12 06:59:24;;;;;;;4.80;2.20;;;;;;;24.84;33.28;94325.69;4744202;30;20480;-68
2021/05/12 07:01:50;;;;;;;5.45;2.03;;;;;;;24.71;33.42;94305.19;4745303;30;20509;-68
2021/05/12 07:04:15;;;;;;;7.97;2.05;;;;;;;24.86;33.08;94323.16;4744127;30;20450;-68
2021/05/12 07:06:41;;;;;;;3.83;2.10;;;;;;;24.84;33.59;94320.25;4745024;30;20098;-69
2021/05/12 07:09:07;;;;;;;8.77;1.80;;;;;;;24.80;32.74;94308.19;4743880;30;20076;-68
2021/05/12 07:11:32;;;;;;;4.10;2.10;;;;;;;24.80;33.14;94318.38;4756469;30;20028;-68
2021/05/12 07:13:58;;;;;;;5.85;2.13;;;;;;;24.69;33.29;94324.09;4743476;30;20040;-68
2021/05/12 07:16:23;;;;;;;6.28;2.17;;;;;;;24.80;33.51;94324.56;4743926;30;20036;-68
2021/05/12 07:18:48;;;;;;;5.43;1.77;;;;;;;24.53;33.20;94276.13;4746587;30;20039;-69
2021/05/12 07:21:14;;;;;;;4.43;1.70;;;;;;;24.64;33.40;94289.50;4736138;30;20043;-72
2021/05/12 07:23:43;;;;;;;7.35;2.20;;;;;;;24.85;34.04;94316.22;4732336;30;20094;-69
2021/05/12 07:26:08;;;;;;;3.38;1.90;;;;;;;24.82;34.44;94306.38;4743179;30;20035;-70
2021/05/12 07:28:34;;;;;;;7.68;2.08;;;;;;;24.88;34.29;94315.16;4737273;30;20541;-68
2021/05/12 07:30:59;;;;;;;10.95;2.25;;;;;;;24.85;34.47;94294.38;4745683;30;20035;-68
2021/05/12 07:33:25;;;;;;;8.10;2.40;;;;;;;24.85;35.20;94294.38;4744104;30;20031;-68
2021/05/12 07:35:50;;;;;;;4.85;2.00;;;;;;;24.87;34.94;94294.59;4745599;30;20036;-67
2021/05/12 07:38:16;;;;;;;7.32;2.08;;;;;;;24.89;34.81;94283.84;4746645;30;20076;-68
2021/05/12 07:40:42;;;;;;;6.43;2.42;;;;;;;24.82;34.66;94279.06;4774904;30;20502;-67
2021/05/12 07:43:11;;;;;;;7.53;1.98;;;;;;;24.91;34.42;94292.22;4746877;30;20036;-67
2021/05/12 07:45:37;;;;;;;4.63;2.10;;;;;;;24.86;34.52;94279.47;4746688;30;20036;-67
2021/05/12 07:48:06;;;;;;;6.18;2.05;;;;;;;24.90;35.00;94279.88;4746756;30;20100;-67
2021/05/12 07:50:32;;;;;;;6.00;2.10;;;;;;;24.88;34.70;94276.91;4746750;30;20032;-67
2021/05/12 07:52:59;;;;;;;7.28;2.40;;;;;;;24.93;34.25;94267.09;4741602;30;20302;-67
2021/05/12 07:55:24;;;;;;;5.80;2.05;;;;;;;24.92;34.16;94266.38;4746167;30;20374;-66
2021/05/12 07:57:50;;;;;;;6.10;1.83;;;;;;;24.92;33.68;94263.66;4740345;30;20068;-67
2021/05/12 08:00:16;;;;;;;6.70;2.03;;;;;;;24.90;34.45;94257.25;4746375;30;20039;-67
2021/05/12 08:02:42;;;;;;;6.60;2.60;;;;;;;24.73;33.73;94231.69;4741424;30;20436;-67
2021/05/12 08:05:07;;;;;;;6.20;2.65;;;;;;;24.93;33.55;94256.94;4744187;30;20032;-67
2021/05/12 08:07:33;;;;;;;5.47;1.80;;;;;;;24.94;33.51;94263.84;4742782;30;20039;-68
2021/05/12 08:09:59;;;;;;;7.03;1.92;;;;;;;24.92;34.05;94250.00;4745429;30;20040;-68
2021/05/12 08:12:25;;;;;;;7.13;2.13;;;;;;;25.03;34.48;94260.66;4745543;30;20101;-68
2021/05/12 08:14:50;;;;;;;8.25;2.30;;;;;;;24.81;34.75;94237.91;4746042;30;20051;-67
2021/05/12 08:17:16;;;;;;;5.10;1.90;;;;;;;25.04;34.82;94256.66;4741039;30;20045;-67
2021/05/12 08:19:41;;;;;;;6.68;2.20;;;;;;;25.07;34.76;94250.13;4746584;30;20497;-68
2021/05/12 08:22:07;;;;;;;5.20;2.35;;;;;;;25.06;34.21;94237.72;4745717;30;20036;-67
2021/05/12 08:24:33;;;;;;;5.47;1.98;;;;;;;25.12;34.56;94243.75;4748620;30;20040;-67
2021/05/12 08:27:02;;;;;;;5.30;1.80;;;;;;;25.13;34.06;94231.56;4741266;30;20039;-68
2021/05/12 08:29:29;;;;;;;4.18;1.73;;;;;;;25.21;34.31;94237.78;4747203;30;20032;-68
2021/05/12 08:31:54;;;;;;;4.15;2.05;;;;;;;25.24;33.92;94231.25;4746588;30;20038;-68
2021/05/12 08:34:20;;;;;;;4.35;1.80;;;;;;;25.28;34.45;94231.63;4743651;30;20032;-68
2021/05/12 08:36:45;;;;;;;5.18;1.58;;;;;;;25.28;34.32;94248.03;4742938;30;20048;-67
2021/05/12 08:39:11;;;;;;;4.05;1.95;;;;;;;25.19;33.95;94207.56;4740241;30;20021;-67
2021/05/12 08:41:37;;;;;;;4.05;1.83;;;;;;;25.33;34.18;94228.75;4745796;30;20051;-79
2021/05/12 08:44:04;;;;;;;2.67;1.55;;;;;;;25.19;33.63;94185.69;4744485;30;20092;-67
2021/05/12 08:46:30;;;;;;;3.95;1.70;;;;;;;25.40;34.24;94213.66;4749415;30;20028;-68
2021/05/12 08:48:56;;;;;;;4.78;1.60;;;;;;;25.33;34.15;94206.88;4749375;30;20093;-69
2021/05/12 08:51:21;;;;;;;4.30;1.40;;;;;;;25.42;34.44;94213.81;4748492;30;20040;-69
2021/05/12 08:53:47;;;;;;;5.13;2.20;;;;;;;25.46;33.73;94208.75;4750525;30;20028;-69
2021/05/12 08:56:13;;;;;;;2.58;1.60;;;;;;;25.09;33.36;94173.81;4778912;30;20028;-70
2021/05/12 08:58:39;;;;;;;4.72;1.70;;;;;;;25.45;34.00;94202.53;4749079;30;20081;-69
2021/05/12 09:01:04;;;;;;;4.07;1.70;;;;;;;25.52;34.04;94209.31;4745292;30;20044;-68
2021/05/12 09:03:30;;;;;;;4.20;1.35;;;;;;;25.55;33.26;94205.50;4765176;30;20819;-68
2021/05/12 09:05:56;;;;;;;3.88;1.60;;;;;;;25.53;33.53;94192.38;4746811;30;20627;-69
2021/05/12 09:08:21;;;;;;;4.90;1.80;;;;;;;25.62;33.55;94196.56;4746242;30;20115;-69
2021/05/12 09:10:47;;;;;;;3.90;1.80;;;;;;;25.66;33.99;94194.25;4747108;30;20101;-69
2021/05/12 09:13:36;;;;;;;7.05;1.83;;;;;;;25.70;33.58;94194.63;4745929;30;20039;-69
2021/05/12 09:16:17;;;;;;;5.25;1.63;;;;;;;25.75;34.04;94199.19;4746631;30;20035;-68
2021/05/12 09:18:43;;;;;;;2.97;1.60;;;;;;;25.79;34.00;94196.84;4748473;30;20048;-68
2021/05/12 09:21:08;;;;;;;3.85;1.63;;;;;;;25.80;33.39;94177.88;4744871;30;20064;-63
2021/05/12 09:23:40;;;;;;;2.83;1.60;;;;;;;25.92;33.44;94189.91;4748747;30;20121;-67
2021/05/12 09:26:15;;;;;;;3.22;1.70;;;;;;;26.01;33.34;94186.63;4743951;30;20098;-67
2021/05/12 09:28:43;;;;;;;3.20;1.63;;;;;;;26.10;33.89;94183.38;4747065;30;20185;-70
2021/05/12 09:31:13;;;;;;;4.40;1.88;;;;;;;26.09;34.32;94181.16;4743856;30;20039;-70
2021/05/12 09:33:39;;;;;;;;;;;;;;;26.14;33.71;94183.72;4745421;30;20052;-70
2021/05/12 09:36:06;;;;;;;4.50;1.90;;;;;;;26.24;33.76;94181.91;4744875;30;19969;-69
2021/05/12 09:38:32;;;;;;;5.05;2.20;;;;;;;26.21;33.21;94150.16;4717572;29;20040;-70
2021/05/12 09:41:11;;;;;;;2.88;1.50;;;;;;;26.52;33.26;94179.00;4760821;30;20565;-70
2021/05/12 09:43:41;;;;;;;3.53;1.60;;;;;;;26.68;32.78;94172.19;4766594;30;20465;-70
2021/05/12 09:46:19;;;;;;;3.22;1.60;;;;;;;26.76;32.82;94181.16;4756394;30;20088;-70
2021/05/12 09:48:49;;;;;;;2.83;1.50;;;;;;;26.84;32.65;94172.34;4763908;30;20070;-70
2021/05/12 09:51:15;;;;;;;;;;;;;;;26.99;32.52;94177.81;4773481;30;20117;-68
2021/05/12 09:53:59;;;;;;;2.33;1.60;;;;;;;27.05;32.84;94181.06;4766671;30;20437;-72
2021/05/12 09:56:37;;;;;;;3.80;1.90;;;;;;;27.14;32.94;94172.28;4772297;30;20050;-68
2021/05/12 09:59:12;;;;;;;3.80;1.88;;;;;;;27.20;33.07;94175.53;4761877;30;20131;-70
2021/05/12 10:01:39;;;;;;;4.07;1.60;;;;;;;27.22;33.71;94178.47;4764440;29;20044;-70
2021/05/12 10:04:20;;;;;;;5.07;1.80;;;;;;;27.24;33.21;94170.41;4766287;29;20505;-69
2021/05/12 10:06:46;;;;;;;3.92;1.60;;;;;;;27.21;33.31;94168.78;4761961;30;20482;-69
2021/05/12 10:09:22;;;;;;;4.80;2.00;;;;;;;27.30;32.79;94168.19;4779849;29;20035;-72
2021/05/12 10:12:09;;;;;;;5.28;2.00;;;;;;;27.30;32.14;94162.72;4760158;30;20039;-72
2021/05/12 10:14:36;;;;;;;4.28;2.13;;;;;;;27.20;31.36;94148.13;4766330;30;20188;-72
2021/05/12 10:17:05;;;;;;;5.57;2.50;;;;;;;27.37;31.54;94156.47;4777451;30;20421;-71
2021/05/12 10:19:32;;;;;;;6.43;2.25;;;;;;;27.31;31.70;94164.19;4765211;30;20110;-71
2021/05/12 10:21:59;;;;;;;4.13;2.00;;;;;;;27.36;31.01;94155.00;4762832;30;20056;-72
2021/05/12 10:24:26;;;;;;;5.32;2.10;;;;;;;27.42;30.73;94161.00;4749409;30;20528;-72
2021/05/12 10:26:51;;;;;;;4.28;2.00;;;;;;;27.23;30.78;94130.56;4759360;30;20115;-72
2021/05/12 10:29:18;;;;;;;7.50;2.67;;;;;;;27.33;31.32;94151.34;4769888;30;20027;-68
2021/05/12 10:31:43;;;;;;;4.60;1.92;;;;;;;27.47;31.41;94144.34;4760812;30;20584;-70
2021/05/12 10:34:09;;;;;;;7.70;2.47;;;;;;;27.32;31.72;94121.75;4764796;29;20157;-72
2021/05/12 10:36:34;;;;;;;4.68;2.47;;;;;;;27.70;31.61;94144.22;4760391;30;20039;-72
2021/05/12 10:39:03;;;;;;;4.35;2.08;;;;;;;27.78;31.39;94140.88;4764127;30;20079;-72
2021/05/12 10:41:43;;;;;;;6.70;1.93;;;;;;;27.87;31.27;94137.50;4760694;30;20110;-73
2021/05/12 10:44:42;;;;;;;6.35;1.98;;;;;;;27.92;31.07;94133.84;4761506;30;20043;-71
2021/05/12 10:47:09;;;;;;;3.83;1.73;;;;;;;27.82;30.81;94102.81;4749911;30;20043;-71
2021/05/12 10:49:35;;;;;;;5.10;2.00;;;;;;;28.08;30.86;94118.69;4763842;30;20051;-71
2021/05/12 10:52:10;;;;;;;4.47;2.00;;;;;;;27.93;30.76;94080.38;4765046;30;20035;-71
2021/05/12 10:54:42;;;;;;;3.65;1.70;;;;;;;27.80;31.03;94061.47;4762759;30;20035;-71
2021/05/12 10:57:08;;;;;;;4.95;2.17;;;;;;;28.21;30.74;94110.19;4762472;30;20032;-71
2021/05/12 10:59:33;;;;;;;5.35;1.88;;;;;;;28.24;30.86;94114.56;4764445;29;20513;-72
2021/05/12 11:01:59;;;;;;;3.75;2.00;;;;;;;28.31;30.91;94109.00;4762373;30;20028;-71
2021/05/12 11:04:25;;;;;;;3.22;1.90;;;;;;;28.33;30.56;94105.69;4760127;29;20516;-71
2021/05/12 11:06:51;;;;;;;4.43;2.03;;;;;;;28.40;30.89;94104.88;4760214;30;20096;-73
2021/05/12 11:09:35;;;;;;;5.60;1.83;;;;;;;28.37;30.90;94106.00;4761036;30;20032;-71
2021/05/12 11:12:06;;;;;;;6.18;2.22;;;;;;;28.43;30.53;94110.00;4758599;30;20036;-71
2021/05/12 11:14:36;;;;;;;4.53;1.60;;;;;;;28.50;31.00;94113.94;4762237;30;20032;-71
2021/05/12 11:17:15;;;;;;;3.53;2.03;;;;;;;28.45;31.04;94101.19;4757512;30;20519;-71
2021/05/12 11:20:03;;;;;;;4.60;1.95;;;;;;;28.49;30.87;94090.50;4754662;30;20042;-71
2021/05/12 11:32:34;;;;;;;3.65;1.90;;;;;;;28.32;31.69;94071.28;4761367;30;20117;-71
2021/05/12 11:34:59;;;;;;;2.63;1.55;;;;;;;28.23;31.49;94071.91;4763588;30;20088;-71
2021/05/12 11:37:26;;;;;;;2.70;1.50;;;;;;;28.13;31.29;94064.88;4762535;30;20043;-71
2021/05/12 11:39:53;;;;;;;3.40;1.77;;;;;;;28.02;31.56;94066.03;4763629;30;20098;-71
2021/05/12 11:42:25;;;;;;;3.25;1.52;;;;;;;28.03;31.68;94072.97;4774010;30;20106;-71